メインページ
METAR-TAF:

METAR-TAF

空港 :

Jimmy Lake, サスカチュワン州, カナダ

緯度: 54-55N, 経度: 109-57W, 海抜: 658m

現時点の気象観測

当レポートは12分前の11:00(UTC)に作成
南西の風 3kt、南/南東から西の間で変化する
気温 12°C
湿度 88%
気圧 1013 hPa
視程: 14.5km
晴天

METAR: CWHN 051100Z AUTO 23003KT 150V280 9SM CLR 12/10 A2992 RMK SLP139

時間: 05:12 (11:12 UTC)


TAF: 見つかりません

4,000以上の空港の気象観測と天気予報(METAR報とTAF報)

利用可能な観測所は地図上に黄色い丸と赤い丸で示す。

丸の上にカーソルを重ねると観測所名を参照できる。

次にクリックすると気象観測と天気予報を参照できる。

マップの切り替え:黒色「×」印の緑ボタンをクリックして拡大、「-」印の緑ボタンをクリックして縮小、緑色の三角印をクリックして隣りの地図に切り替え


METAR-TAF: